Time;durP1;ratioP1;P1;durP2;ratioP2;P2;SDS_P1;SDS_P2;PMS_P1;PMS_P2;Temp;Humidity;BMP_temperature;BMP_pressure;BME280_temperature;BME280_humidity;BME280_pressure;Samples;Min_cycle;Max_cycle;Signal;HPM_P1;HPM_P2
2022/07/16 00:02:56;;;;;;;9.98;1.48;;;15.90;99.90;;;;;;5074080;28;20063;-76
2022/07/16 00:05:21;;;;;;;3.83;1.38;;;15.80;99.90;;;;;;5073746;28;20048;-76
2022/07/16 00:07:47;;;;;;;7.78;1.75;;;15.70;99.90;;;;;;5072056;28;20044;-76
2022/07/16 00:10:13;;;;;;;6.82;1.77;;;15.70;99.90;;;;;;5073932;28;20097;-76
2022/07/16 00:12:38;;;;;;;6.47;2.05;;;15.70;99.90;;;;;;5089454;28;20135;-76
2022/07/16 00:15:05;;;;;;;8.35;2.13;;;15.70;99.90;;;;;;5073983;28;20044;-76
2022/07/16 00:17:30;;;;;;;12.75;1.90;;;15.70;99.90;;;;;;5072618;28;20473;-76
2022/07/16 00:19:57;;;;;;;14.80;2.78;;;15.70;99.90;;;;;;5089165;28;20132;-76
2022/07/16 00:22:23;;;;;;;8.82;2.63;;;15.80;99.90;;;;;;5073594;28;20479;-76
2022/07/16 00:24:48;;;;;;;10.13;2.28;;;15.80;99.90;;;;;;5089298;28;20048;-76
2022/07/16 00:27:14;;;;;;;7.28;2.00;;;15.80;99.90;;;;;;5073765;28;20047;-76
2022/07/16 00:29:40;;;;;;;11.02;2.33;;;15.80;99.90;;;;;;5073730;28;20193;-76
2022/07/16 00:32:05;;;;;;;11.07;2.08;;;15.90;99.90;;;;;;5073619;28;20118;-76
2022/07/16 00:34:32;;;;;;;8.13;2.00;;;15.90;99.90;;;;;;5073609;28;20504;-76
2022/07/16 00:36:58;;;;;;;5.65;2.00;;;15.90;99.90;;;;;;5072437;28;20499;-76
2022/07/16 00:39:24;;;;;;;12.43;2.42;;;15.90;99.90;;;;;;5073593;28;20045;-76
2022/07/16 00:41:50;;;;;;;10.77;2.70;;;15.90;99.90;;;;;;5072239;28;20072;-76
2022/07/16 00:44:17;;;;;;;7.45;2.70;;;16.00;99.90;;;;;;5073583;28;20133;-76
2022/07/16 00:46:45;;;;;;;7.60;2.35;;;16.00;99.90;;;;;;5072501;28;20048;-76
2022/07/16 00:49:11;;;;;;;7.75;2.90;;;16.00;99.90;;;;;;5073552;28;20368;-76
2022/07/16 00:51:45;;;;;;;6.60;2.05;;;16.00;99.90;;;;;;5072655;28;20052;-76
2022/07/16 00:54:12;;;;;;;8.77;2.67;;;16.00;99.90;;;;;;5073494;28;20050;-76
2022/07/16 00:56:38;;;;;;;9.02;2.53;;;16.00;99.90;;;;;;5089282;28;20471;-76
2022/07/16 00:59:03;;;;;;;9.40;2.30;;;16.00;99.90;;;;;;5073446;28;20040;-76
2022/07/16 01:01:29;;;;;;;11.90;2.83;;;16.10;99.90;;;;;;5089049;28;20386;-76
2022/07/16 01:03:55;;;;;;;14.30;2.75;;;16.10;99.90;;;;;;5073594;28;20094;-76
2022/07/16 01:06:22;;;;;;;8.27;2.97;;;16.00;99.90;;;;;;5073329;28;20048;-76
2022/07/16 01:08:49;;;;;;;11.30;2.60;;;16.00;99.90;;;;;;5088803;28;20052;-76
2022/07/16 01:11:17;;;;;;;9.98;3.42;;;16.10;99.90;;;;;;5073328;28;20045;-76
2022/07/16 01:13:45;;;;;;;10.55;2.63;;;16.10;99.90;;;;;;5073365;28;20041;-76
2022/07/16 01:16:11;;;;;;;8.93;2.75;;;16.00;99.90;;;;;;5072220;28;20055;-75
2022/07/16 01:18:39;;;;;;;7.05;2.35;;;16.00;99.90;;;;;;5076411;28;20048;-76
2022/07/16 01:21:05;;;;;;;7.05;2.40;;;16.00;99.90;;;;;;5076734;28;20494;-76
2022/07/16 01:23:31;;;;;;;8.75;2.33;;;16.00;99.90;;;;;;5076890;28;20087;-76
2022/07/16 01:25:57;;;;;;;8.93;2.97;;;16.00;99.90;;;;;;5077045;28;20506;-76
2022/07/16 01:28:22;;;;;;;9.48;2.17;;;15.80;99.90;;;;;;5076712;28;20045;-76
2022/07/16 01:30:49;;;;;;;7.35;2.25;;;15.80;99.90;;;;;;5076780;28;20045;-76
2022/07/16 01:33:20;;;;;;;6.30;2.38;;;15.80;99.90;;;;;;5076821;28;20040;-75
2022/07/16 01:35:45;;;;;;;7.57;2.33;;;15.80;99.90;;;;;;5076853;28;20037;-75
2022/07/16 01:38:11;;;;;;;8.57;2.58;;;15.80;99.90;;;;;;5076654;28;20071;-75
2022/07/16 01:40:37;;;;;;;10.65;2.70;;;15.80;99.90;;;;;;5092587;28;20135;-76
2022/07/16 01:43:02;;;;;;;8.43;2.92;;;15.80;99.90;;;;;;5076663;28;20051;-76
2022/07/16 01:45:28;;;;;;;9.30;2.50;;;15.80;99.90;;;;;;5076583;28;20435;-76
2022/07/16 01:47:53;;;;;;;9.48;2.88;;;15.70;99.90;;;;;;5076664;28;20037;-76
2022/07/16 01:50:19;;;;;;;7.07;2.58;;;15.70;99.90;;;;;;5076320;28;20048;-76
2022/07/16 01:52:45;;;;;;;9.30;2.38;;;15.60;99.90;;;;;;5076491;28;20487;-76
2022/07/16 01:55:11;;;;;;;9.80;2.70;;;15.60;99.90;;;;;;5076448;28;20048;-76
2022/07/16 01:57:37;;;;;;;8.38;2.50;;;15.60;99.90;;;;;;5076415;28;20041;-76
2022/07/16 02:00:03;;;;;;;8.32;3.03;;;15.60;99.90;;;;;;5076295;28;20071;-75
2022/07/16 02:02:29;;;;;;;9.15;3.13;;;15.60;99.90;;;;;;5076085;28;20475;-76
2022/07/16 02:04:54;;;;;;;12.63;2.80;;;15.70;99.90;;;;;;5091990;28;20051;-75
2022/07/16 02:07:20;;;;;;;10.65;3.55;;;15.70;99.90;;;;;;5076230;28;20041;-76
2022/07/16 02:09:46;;;;;;;11.98;3.25;;;15.70;99.90;;;;;;5092113;28;20066;-75
2022/07/16 02:12:11;;;;;;;12.02;3.92;;;15.70;99.90;;;;;;5075895;28;20045;-76
2022/07/16 02:14:37;;;;;;;13.48;3.50;;;15.60;99.90;;;;;;5091914;28;20125;-76
2022/07/16 02:17:03;;;;;;;8.10;3.20;;;15.60;99.90;;;;;;5075824;28;20056;-76
2022/07/16 02:19:28;;;;;;;10.07;3.15;;;15.70;99.90;;;;;;5076049;28;20471;-76
2022/07/16 02:21:54;;;;;;;9.73;2.88;;;15.60;99.90;;;;;;5074465;28;20052;-76
2022/07/16 02:24:19;;;;;;;8.35;2.70;;;15.70;99.90;;;;;;5091479;28;20048;-76
2022/07/16 02:26:45;;;;;;;6.80;2.70;;;15.60;99.90;;;;;;5074641;28;20041;-76
2022/07/16 02:29:11;;;;;;;11.23;3.00;;;15.60;99.90;;;;;;5075091;28;20044;-76
2022/07/16 02:31:36;;;;;;;9.43;3.05;;;15.50;99.90;;;;;;5075485;28;20037;-76
2022/07/16 02:34:02;;;;;;;9.82;2.80;;;15.50;99.90;;;;;;5075780;28;20472;-75
2022/07/16 02:36:28;;;;;;;7.10;2.80;;;15.50;99.90;;;;;;5074598;28;20072;-76
2022/07/16 02:38:54;;;;;;;11.60;2.65;;;15.40;99.90;;;;;;5075688;28;20486;-76
2022/07/16 02:41:19;;;;;;;9.88;2.60;;;15.50;99.90;;;;;;5091394;28;20127;-75
2022/07/16 02:43:45;;;;;;;8.77;3.05;;;15.50;99.90;;;;;;5091136;28;20489;-75
2022/07/16 02:46:10;;;;;;;7.70;2.85;;;15.50;99.90;;;;;;5075509;28;20036;-75
2022/07/16 02:48:36;;;;;;;7.80;3.03;;;15.50;99.90;;;;;;5075512;28;20140;-75
2022/07/16 02:51:01;;;;;;;11.52;2.67;;;15.50;99.90;;;;;;5074309;28;20464;-75
2022/07/16 02:53:27;;;;;;;11.88;3.70;;;15.50;99.90;;;;;;5075211;28;20135;-76
2022/07/16 02:55:53;;;;;;;8.88;2.72;;;15.60;99.90;;;;;;5075278;28;20127;-75
2022/07/16 02:58:18;;;;;;;10.82;2.97;;;15.60;99.90;;;;;;5075235;28;20028;-76
2022/07/16 03:00:44;;;;;;;8.77;2.95;;;15.60;99.90;;;;;;5090584;28;20498;-75
2022/07/16 03:03:10;;;;;;;11.00;2.30;;;15.60;99.90;;;;;;5075367;28;20050;-76
2022/07/16 03:05:35;;;;;;;14.80;3.78;;;15.60;99.90;;;;;;5075017;28;20052;-76
2022/07/16 03:08:01;;;;;;;9.57;2.40;;;15.60;99.90;;;;;;5075110;28;20033;-76
2022/07/16 03:10:26;;;;;;;10.88;2.55;;;15.60;99.90;;;;;;5075055;28;20048;-75
2022/07/16 03:12:54;;;;;;;10.38;2.40;;;15.60;99.90;;;;;;5074726;28;20037;-75
2022/07/16 03:15:20;;;;;;;9.70;2.30;;;15.50;99.90;;;;;;5074660;28;20048;-75
2022/07/16 03:17:45;;;;;;;13.57;2.85;;;15.50;99.90;;;;;;5074315;28;20040;-76
2022/07/16 03:20:12;;;;;;;8.10;2.13;;;15.50;99.90;;;;;;5072668;28;20099;-75
2022/07/16 03:22:45;;;;;;;6.50;1.80;;;15.40;99.90;;;;;;5089436;28;20491;-75
2022/07/16 03:25:11;;;;;;;4.07;1.40;;;15.50;99.90;;;;;;5073050;28;20040;-75
2022/07/16 03:27:37;;;;;;;7.88;2.03;;;15.40;99.90;;;;;;5073904;28;20514;-75
2022/07/16 03:30:03;;;;;;;6.63;1.67;;;15.40;99.90;;;;;;5073114;28;20044;-75
2022/07/16 03:32:29;;;;;;;9.70;2.13;;;15.40;99.90;;;;;;5074535;28;20052;-75
2022/07/16 03:34:54;;;;;;;5.22;1.50;;;15.40;99.90;;;;;;5074527;28;20040;-75
2022/07/16 03:37:20;;;;;;;7.07;1.50;;;15.40;99.90;;;;;;5074424;28;20048;-75
2022/07/16 03:39:45;;;;;;;7.25;1.98;;;15.50;99.90;;;;;;5074148;28;20044;-75
2022/07/16 03:42:11;;;;;;;8.73;2.08;;;15.40;99.90;;;;;;5073054;28;20048;-75
2022/07/16 03:44:36;;;;;;;7.78;1.95;;;15.50;99.90;;;;;;5074320;28;20123;-76
2022/07/16 03:47:02;;;;;;;12.18;2.25;;;15.50;99.90;;;;;;5074312;28;20048;-75
2022/07/16 03:49:28;;;;;;;14.88;2.45;;;15.50;99.90;;;;;;5089624;28;20040;-75
2022/07/16 03:51:54;;;;;;;10.40;2.25;;;15.50;99.90;;;;;;5074087;28;20046;-75
2022/07/16 03:54:19;;;;;;;9.15;2.13;;;15.50;99.90;;;;;;5074011;28;20040;-76
2022/07/16 03:56:45;;;;;;;13.90;2.88;;;15.50;99.90;;;;;;5073847;28;20127;-75
2022/07/16 03:59:10;;;;;;;7.05;2.05;;;15.50;99.90;;;;;;5073814;28;20395;-75
2022/07/16 04:01:36;;;;;;;6.78;2.50;;;15.50;99.90;;;;;;5073770;28;20098;-77
2022/07/16 04:04:02;;;;;;;10.13;2.60;;;15.60;99.90;;;;;;5073955;28;20044;-75
2022/07/16 04:06:28;;;;;;;8.05;1.92;;;15.50;99.90;;;;;;5089676;28;20048;-75
2022/07/16 04:08:54;;;;;;;10.20;1.73;;;15.50;99.90;;;;;;5073601;28;20048;-75
2022/07/16 04:11:19;;;;;;;9.05;1.60;;;15.50;99.90;;;;;;5073684;28;20037;-75
2022/07/16 04:13:45;;;;;;;7.68;2.08;;;15.50;99.90;;;;;;5072324;28;20128;-75
2022/07/16 04:16:11;;;;;;;7.47;1.95;;;15.40;99.90;;;;;;5073892;28;20082;-76
2022/07/16 04:18:37;;;;;;;9.93;1.45;;;15.40;99.90;;;;;;5073620;28;20061;-75
2022/07/16 04:21:05;;;;;;;11.52;1.63;;;15.40;99.90;;;;;;5073471;28;20048;-75
2022/07/16 04:23:30;;;;;;;9.30;2.05;;;15.40;99.90;;;;;;5073645;28;20056;-76
2022/07/16 04:25:56;;;;;;;7.13;1.52;;;15.40;99.90;;;;;;5073741;28;20436;-76
2022/07/16 04:28:22;;;;;;;6.88;2.47;;;15.50;99.90;;;;;;5073472;28;20052;-75
2022/07/16 04:30:48;;;;;;;8.65;1.40;;;15.40;99.90;;;;;;5073722;28;20040;-75
2022/07/16 04:33:13;;;;;;;7.97;1.80;;;15.40;99.90;;;;;;5088939;28;20049;-75
2022/07/16 04:35:39;;;;;;;11.32;2.00;;;15.40;99.90;;;;;;5073618;28;20091;-75
2022/07/16 04:38:05;;;;;;;11.63;1.48;;;15.40;99.90;;;;;;5089289;28;20048;-75
2022/07/16 04:40:31;;;;;;;8.82;1.70;;;15.30;99.90;;;;;;5088827;28;20498;-75
2022/07/16 04:42:56;;;;;;;9.15;1.80;;;15.30;99.90;;;;;;5073349;28;20044;-75
2022/07/16 04:45:22;;;;;;;6.60;1.20;;;15.40;99.90;;;;;;5073420;28;20055;-75
2022/07/16 04:47:48;;;;;;;6.38;1.30;;;15.40;99.90;;;;;;5088827;28;20041;-75
2022/07/16 04:50:13;;;;;;;10.77;2.08;;;15.30;99.90;;;;;;5073514;28;20041;-75
2022/07/16 04:52:39;;;;;;;11.95;1.48;;;15.30;99.90;;;;;;5074742;28;20055;-75
2022/07/16 04:55:05;;;;;;;7.43;1.25;;;15.30;99.90;;;;;;5093013;28;20080;-75
2022/07/16 04:57:32;;;;;;;9.57;1.55;;;15.30;99.90;;;;;;5077501;28;20047;-75
2022/07/16 04:59:58;;;;;;;9.27;1.88;;;15.40;99.90;;;;;;5076112;28;20040;-75
2022/07/16 05:05:08;;;;;;;12.50;1.65;;;15.40;99.90;;;;;;5077143;28;20522;-75
2022/07/16 05:07:34;;;;;;;13.20;2.03;;;15.50;99.90;;;;;;5077301;28;20486;-75
2022/07/16 05:10:00;;;;;;;7.22;1.17;;;15.50;99.90;;;;;;5076781;28;20494;-75
2022/07/16 05:12:26;;;;;;;10.65;1.17;;;15.60;99.90;;;;;;5077073;28;20087;-75
2022/07/16 05:14:52;;;;;;;8.05;1.58;;;15.60;99.90;;;;;;5077098;28;20048;-75
2022/07/16 05:17:17;;;;;;;10.77;1.45;;;15.70;99.90;;;;;;5076055;28;20471;-75
2022/07/16 05:19:43;;;;;;;7.97;1.63;;;15.70;99.90;;;;;;5076826;28;20040;-75
2022/07/16 05:22:09;;;;;;;10.40;2.08;;;15.80;99.90;;;;;;5076800;28;20052;-75
2022/07/16 05:24:36;;;;;;;10.20;1.38;;;15.80;99.90;;;;;;5092370;28;20052;-75
2022/07/16 05:27:02;;;;;;;7.88;1.10;;;15.80;99.90;;;;;;5076894;28;20045;-75
2022/07/16 05:29:28;;;;;;;7.97;1.48;;;15.90;99.90;;;;;;5076974;28;20040;-75
2022/07/16 05:31:54;;;;;;;7.57;1.23;;;16.00;99.90;;;;;;5092420;28;20045;-75
2022/07/16 05:34:19;;;;;;;7.57;1.30;;;16.00;99.90;;;;;;5076650;28;20041;-75
2022/07/16 05:36:45;;;;;;;8.13;1.40;;;16.10;99.90;;;;;;5076787;28;20036;-75
2022/07/16 05:39:10;;;;;;;7.40;1.50;;;16.20;99.90;;;;;;5092461;28;20544;-75
2022/07/16 05:41:36;;;;;;;7.55;1.60;;;16.20;99.90;;;;;;5092096;28;20051;-75
2022/07/16 05:44:02;;;;;;;4.38;0.98;;;16.30;99.90;;;;;;5092393;28;20055;-76
2022/07/16 05:46:28;;;;;;;4.53;0.60;;;16.40;99.90;;;;;;5092295;28;20045;-75
2022/07/16 05:48:53;;;;;;;5.10;0.75;;;16.40;99.90;;;;;;5092201;28;20056;-75
2022/07/16 05:51:19;;;;;;;5.75;0.90;;;16.60;99.90;;;;;;5076232;28;20044;-76
2022/07/16 05:53:44;;;;;;;8.77;1.30;;;16.60;99.90;;;;;;5091927;28;20044;-75
2022/07/16 05:56:10;;;;;;;5.00;1.13;;;16.70;99.90;;;;;;5076316;28;20127;-75
2022/07/16 05:58:36;;;;;;;9.25;1.10;;;16.80;99.90;;;;;;5076288;28;20045;-75
2022/07/16 06:01:01;;;;;;;10.70;1.85;;;16.90;99.90;;;;;;5091773;28;20432;-76
2022/07/16 06:03:27;;;;;;;6.18;0.82;;;17.00;99.90;;;;;;5075323;28;20059;-75
2022/07/16 06:05:52;;;;;;;7.60;1.10;;;17.00;99.90;;;;;;5091073;28;20124;-75
2022/07/16 06:08:18;;;;;;;8.30;1.33;;;17.00;99.90;;;;;;5092657;28;20106;-76
2022/07/16 06:10:44;;;;;;;6.15;1.80;;;17.00;99.90;;;;;;5075047;28;20049;-76
2022/07/16 06:13:10;;;;;;;7.50;0.65;;;17.00;99.90;;;;;;5074552;28;20049;-75
2022/07/16 06:15:36;;;;;;;4.07;0.65;;;17.20;99.90;;;;;;5075904;28;20483;-76
2022/07/16 06:18:02;;;;;;;7.65;1.27;;;17.20;99.90;;;;;;5074973;28;20524;-76
2022/07/16 06:20:28;;;;;;;4.32;0.73;;;17.30;99.90;;;;;;5074439;28;20131;-75
2022/07/16 06:22:56;;;;;;;10.63;1.23;;;17.40;99.90;;;;;;5091320;28;20049;-75
2022/07/16 06:25:23;;;;;;;10.65;1.63;;;17.30;99.90;;;;;;5075833;28;20040;-75
2022/07/16 06:27:48;;;;;;;4.78;1.20;;;17.20;99.90;;;;;;5074484;28;20049;-75
2022/07/16 06:30:14;;;;;;;6.28;1.10;;;16.90;99.90;;;;;;5091260;28;20059;-75
2022/07/16 06:32:40;;;;;;;7.30;1.23;;;16.80;99.90;;;;;;5086294;28;20051;-74
2022/07/16 06:35:07;;;;;;;10.75;1.02;;;16.90;99.90;;;;;;5075533;28;20047;-75
2022/07/16 06:37:32;;;;;;;6.53;0.90;;;16.90;99.90;;;;;;5074253;28;20052;-75
2022/07/16 06:39:58;;;;;;;9.63;1.15;;;17.00;99.90;;;;;;5073967;28;20044;-74
2022/07/16 06:42:24;;;;;;;9.43;0.88;;;17.20;99.90;;;;;;5073936;28;20048;-74
2022/07/16 06:44:49;;;;;;;6.43;1.67;;;17.20;99.90;;;;;;5074202;28;20052;-75
2022/07/16 06:47:15;;;;;;;9.57;1.08;;;17.20;99.90;;;;;;5073864;28;20403;-74
2022/07/16 06:49:41;;;;;;;8.85;1.77;;;17.50;99.90;;;;;;5075218;28;20033;-74
2022/07/16 06:52:07;;;;;;;6.47;1.10;;;17.50;99.90;;;;;;5073648;28;20049;-74
2022/07/16 06:54:32;;;;;;;8.93;1.00;;;17.50;99.90;;;;;;5074954;28;20040;-74
2022/07/16 06:56:58;;;;;;;8.60;1.20;;;17.50;99.90;;;;;;5075155;28;20052;-75
2022/07/16 06:59:24;;;;;;;6.90;1.30;;;17.30;99.90;;;;;;5073593;28;20063;-74
2022/07/16 07:01:50;;;;;;;6.18;1.20;;;17.20;99.90;;;;;;5074792;28;20123;-75
2022/07/16 07:04:15;;;;;;;8.40;1.00;;;17.00;99.90;;;;;;5073702;28;20059;-74
2022/07/16 07:06:41;;;;;;;5.30;1.20;;;17.10;99.90;;;;;;5074930;28;20043;-74
2022/07/16 07:09:06;;;;;;;7.65;1.23;;;17.20;99.90;;;;;;5073368;28;20049;-75
2022/07/16 07:11:32;;;;;;;5.43;1.15;;;17.50;99.90;;;;;;5074577;28;20087;-75
2022/07/16 07:13:58;;;;;;;7.78;1.65;;;17.70;99.90;;;;;;5073556;28;20113;-74
2022/07/16 07:16:23;;;;;;;11.73;1.40;;;17.90;99.90;;;;;;5073293;28;20055;-74
2022/07/16 07:18:49;;;;;;;5.75;0.90;;;18.10;99.90;;;;;;5074565;28;20466;-74
2022/07/16 07:21:15;;;;;;;5.68;0.80;;;18.20;99.90;;;;;;5073115;28;20057;-74
2022/07/16 07:23:40;;;;;;;8.90;0.90;;;18.40;99.90;;;;;;5074304;28;20072;-74
2022/07/16 07:26:06;;;;;;;5.75;1.02;;;18.40;99.90;;;;;;5081894;28;20391;-75
2022/07/16 07:28:32;;;;;;;7.53;1.02;;;18.20;99.90;;;;;;5075285;28;20036;-74
2022/07/16 07:30:57;;;;;;;8.95;1.20;;;18.20;99.90;;;;;;5073199;28;20491;-74
2022/07/16 07:33:24;;;;;;;10.35;1.30;;;18.20;99.90;;;;;;5073978;28;20059;-74
2022/07/16 07:35:50;;;;;;;12.80;1.25;;;18.20;99.90;;;;;;5074360;28;20048;-74
2022/07/16 07:38:16;;;;;;;13.70;1.85;;;18.40;99.90;;;;;;5072748;28;20044;-74
2022/07/16 07:40:41;;;;;;;6.68;1.08;;;18.50;99.90;;;;;;5072798;28;20123;-75
2022/07/16 07:43:07;;;;;;;9.43;1.45;;;18.80;99.90;;;;;;5074253;28;20051;-74
2022/07/16 07:45:32;;;;;;;6.22;1.20;;;18.70;99.90;;;;;;5073838;28;20056;-74
2022/07/16 07:47:58;;;;;;;8.60;1.08;;;18.60;99.90;;;;;;5072845;28;20467;-75
2022/07/16 07:50:24;;;;;;;7.35;1.50;;;18.80;99.90;;;;;;5072574;28;20094;-75
2022/07/16 07:52:50;;;;;;;6.55;1.30;;;18.80;99.90;;;;;;5073982;28;20043;-74
2022/07/16 07:55:16;;;;;;;8.18;1.10;;;18.90;99.90;;;;;;5076218;28;20045;-75
2022/07/16 07:57:42;;;;;;;8.52;0.95;;;19.00;99.90;;;;;;5082847;28;20531;-74
2022/07/16 08:00:09;;;;;;;10.43;1.35;;;19.00;99.90;;;;;;5073702;28;20052;-75
2022/07/16 08:02:35;;;;;;;7.18;1.45;;;19.10;99.90;;;;;;5073584;28;20055;-74
2022/07/16 08:05:00;;;;;;;6.22;1.50;;;19.40;99.90;;;;;;5076295;28;20126;-75
2022/07/16 08:07:27;;;;;;;4.85;0.90;;;19.50;99.90;;;;;;5081227;28;20040;-75
2022/07/16 08:09:52;;;;;;;6.05;1.30;;;19.60;99.90;;;;;;5073741;28;20110;-75
2022/07/16 08:12:18;;;;;;;9.10;0.82;;;19.80;99.90;;;;;;5072246;28;20052;-74
2022/07/16 08:14:44;;;;;;;9.00;1.02;;;19.80;99.90;;;;;;5073706;28;20120;-75
2022/07/16 08:17:09;;;;;;;5.95;0.88;;;19.90;99.90;;;;;;5073598;28;20041;-74
2022/07/16 08:19:35;;;;;;;6.10;1.23;;;19.80;99.90;;;;;;5072416;28;20067;-74
2022/07/16 08:22:02;;;;;;;7.63;1.02;;;19.80;99.90;;;;;;5071931;28;20053;-75
2022/07/16 08:27:12;;;;;;;6.28;1.00;;;20.00;99.90;;;;;;5085843;28;20492;-75
2022/07/16 08:29:38;;;;;;;6.25;1.13;;;20.10;99.90;;;;;;5085597;28;20071;-74
2022/07/16 08:32:04;;;;;;;6.13;1.10;;;20.20;99.90;;;;;;5091651;28;20372;-75
2022/07/16 08:34:30;;;;;;;4.60;1.13;;;20.30;99.90;;;;;;5092709;28;20048;-75
2022/07/16 08:36:56;;;;;;;4.55;1.25;;;20.50;99.90;;;;;;5080220;28;20040;-74
2022/07/16 08:39:22;;;;;;;6.95;1.20;;;20.50;99.90;;;;;;5093076;28;20097;-74
2022/07/16 08:41:49;;;;;;;6.00;1.17;;;20.60;99.90;;;;;;5092944;28;20044;-74
2022/07/16 08:44:16;;;;;;;6.93;1.17;;;20.60;99.90;;;;;;5092956;28;20047;-75
2022/07/16 08:46:42;;;;;;;8.55;1.10;;;20.80;99.90;;;;;;5092274;28;20047;-74
2022/07/16 08:49:08;;;;;;;6.50;0.80;;;20.70;99.90;;;;;;5092354;28;20064;-75
2022/07/16 08:51:36;;;;;;;6.95;1.38;;;20.70;99.90;;;;;;5092316;28;20055;-75
2022/07/16 08:54:09;;;;;;;5.38;1.20;;;20.60;99.90;;;;;;5092156;28;20398;-75
2022/07/16 08:56:35;;;;;;;6.30;1.40;;;20.80;99.90;;;;;;5086806;28;20092;-75
2022/07/16 08:59:02;;;;;;;8.90;1.27;;;20.80;99.90;;;;;;5072500;28;20052;-74
2022/07/16 09:01:29;;;;;;;7.88;1.23;;;20.90;99.90;;;;;;5073273;28;20111;-74
2022/07/16 09:03:57;;;;;;;5.60;1.20;;;21.00;99.90;;;;;;5072960;28;20032;-74
2022/07/16 09:06:24;;;;;;;11.23;1.35;;;21.10;99.90;;;;;;5083836;28;20044;-74
2022/07/16 09:08:50;;;;;;;9.88;1.23;;;21.30;99.90;;;;;;5091439;28;20032;-74
2022/07/16 09:11:21;;;;;;;8.27;1.30;;;21.20;99.90;;;;;;5091772;28;20040;-74
2022/07/16 09:14:08;;;;;;;5.75;0.88;;;21.30;99.90;;;;;;5093347;28;20051;-74
2022/07/16 09:16:37;;;;;;;8.20;1.17;;;21.40;99.90;;;;;;5092055;28;20051;-75
2022/07/16 09:19:14;;;;;;;9.90;1.13;;;21.10;99.90;;;;;;5091778;28;20232;-75
2022/07/16 09:22:08;;;;;;;14.52;1.58;;;21.00;99.90;;;;;;5091568;28;20056;-75
2022/07/16 09:24:43;;;;;;;9.98;0.90;;;21.10;99.90;;;;;;5090739;28;20063;-75
2022/07/16 09:27:11;;;;;;;5.57;0.75;;;21.00;99.90;;;;;;5092463;28;20048;-75
2022/07/16 09:29:54;;;;;;;6.18;0.93;;;21.00;99.90;;;;;;5092910;28;20044;-75
2022/07/16 09:32:27;;;;;;;4.25;1.00;;;21.10;99.90;;;;;;5092745;28;20055;-75
2022/07/16 09:35:13;;;;;;;7.05;1.10;;;21.10;99.90;;;;;;5091285;28;20510;-75
2022/07/16 09:37:57;;;;;;;6.40;0.85;;;21.10;99.90;;;;;;5093126;28;20042;-76
2022/07/16 09:40:33;;;;;;;6.72;1.30;;;21.10;99.90;;;;;;5095315;28;20079;-75
2022/07/16 09:43:00;;;;;;;5.57;1.00;;;21.30;99.90;;;;;;5096585;28;20046;-75
2022/07/16 09:45:26;;;;;;;5.93;1.10;;;21.40;99.90;;;;;;5096054;28;20047;-75
2022/07/16 09:47:52;;;;;;;6.03;1.20;;;21.40;99.90;;;;;;5096500;28;20040;-76
2022/07/16 09:50:17;;;;;;;7.22;1.08;;;21.50;99.90;;;;;;5096821;28;20055;-76
2022/07/16 09:52:43;;;;;;;7.53;1.00;;;21.60;99.90;;;;;;5096337;28;20093;-76
2022/07/16 09:55:09;;;;;;;10.15;1.27;;;21.60;99.90;;;;;;5096430;28;20040;-77
2022/07/16 09:57:36;;;;;;;8.18;1.80;;;21.80;99.90;;;;;;5096645;28;20048;-77
2022/07/16 10:00:08;;;;;;;6.78;1.05;;;21.90;99.90;;;;;;5096553;28;20092;-76
2022/07/16 10:02:34;;;;;;;8.65;1.05;;;22.10;99.90;;;;;;5095045;28;20101;-77
2022/07/16 10:05:00;;;;;;;10.15;1.00;;;22.20;99.90;;;;;;5096139;28;20093;-76
2022/07/16 10:07:26;;;;;;;6.55;0.82;;;22.30;99.90;;;;;;5095007;28;20048;-78
2022/07/16 10:09:52;;;;;;;7.05;1.00;;;22.50;99.90;;;;;;5096324;28;20047;-76
2022/07/16 10:12:20;;;;;;;8.98;1.10;;;22.40;99.90;;;;;;5096048;28;20074;-76
2022/07/16 10:14:51;;;;;;;8.25;1.13;;;22.40;99.90;;;;;;5096291;28;20052;-77
2022/07/16 10:17:23;;;;;;;4.75;1.25;;;22.80;99.90;;;;;;5096082;28;20039;-76
2022/07/16 10:20:00;;;;;;;6.05;1.20;;;22.80;99.90;;;;;;5094329;28;20091;-77
2022/07/16 10:22:34;;;;;;;7.65;1.50;;;22.80;99.90;;;;;;5096217;28;20040;-76
2022/07/16 10:25:00;;;;;;;8.55;1.27;;;22.90;99.90;;;;;;5094869;28;20112;-77
2022/07/16 10:27:30;;;;;;;6.43;1.20;;;22.90;99.90;;;;;;5095886;28;20115;-77
2022/07/16 10:30:23;;;;;;;6.78;0.98;;;22.90;99.90;;;;;;5094418;28;20052;-77
2022/07/16 10:33:05;;;;;;;10.30;0.95;;;22.50;99.90;;;;;;5094451;28;20689;-77
2022/07/16 10:35:44;;;;;;;7.80;1.20;;;22.40;99.90;;;;;;5095850;28;20087;-77
2022/07/16 10:38:11;;;;;;;8.15;1.17;;;21.90;99.90;;;;;;5094725;28;20056;-74
2022/07/16 10:40:39;;;;;;;8.07;1.23;;;21.70;99.90;;;;;;5095544;28;20093;-78
2022/07/16 10:43:19;;;;;;;7.40;1.27;;;21.70;99.90;;;;;;5095640;28;20040;-78
2022/07/16 10:45:58;;;;;;;10.45;1.35;;;21.70;99.90;;;;;;5094128;28;20105;-76
2022/07/16 10:48:26;;;;;;;8.25;1.92;;;21.90;99.90;;;;;;5094491;28;20048;-76
2022/07/16 10:51:12;;;;;;;9.52;1.20;;;21.50;99.90;;;;;;5093693;28;20048;-76
2022/07/16 10:54:01;;;;;;;7.72;1.40;;;21.70;99.90;;;;;;5095186;28;20076;-79
2022/07/16 10:56:46;;;;;;;10.88;1.73;;;21.90;99.90;;;;;;5095491;28;20118;-76
2022/07/16 10:59:15;;;;;;;8.88;1.20;;;22.20;99.90;;;;;;5093965;28;20048;-76
2022/07/16 11:01:43;;;;;;;6.28;1.25;;;22.30;99.90;;;;;;5095229;28;20040;-77
2022/07/16 11:04:10;;;;;;;15.10;1.70;;;22.40;99.90;;;;;;5094113;28;20543;-75
2022/07/16 11:06:37;;;;;;;6.35;1.13;;;22.40;99.90;;;;;;5093579;28;20048;-76
2022/07/16 11:09:06;;;;;;;5.10;1.05;;;22.30;99.90;;;;;;5094002;28;20143;-79
2022/07/16 11:11:41;;;;;;;8.30;1.15;;;22.10;99.90;;;;;;5094917;28;20115;-77
2022/07/16 11:14:09;;;;;;;6.43;1.05;;;22.00;99.90;;;;;;5094827;28;20093;-77
2022/07/16 11:16:35;;;;;;;11.30;1.10;;;21.80;99.90;;;;;;5093574;28;20119;-77
2022/07/16 11:19:04;;;;;;;7.68;1.08;;;22.00;99.90;;;;;;5094990;28;20071;-77
2022/07/16 11:21:31;;;;;;;5.20;1.00;;;22.00;99.90;;;;;;5094556;28;20062;-76
2022/07/16 11:23:59;;;;;;;9.55;1.27;;;22.10;99.90;;;;;;5094649;28;20048;-82
2022/07/16 11:26:25;;;;;;;4.53;1.05;;;22.20;99.90;;;;;;5094671;28;20040;-76
2022/07/16 11:28:52;;;;;;;3.92;1.20;;;22.20;99.90;;;;;;5094514;28;20123;-77
2022/07/16 11:31:27;;;;;;;5.65;1.13;;;22.00;99.90;;;;;;5094714;28;20040;-77
2022/07/16 11:33:56;;;;;;;7.43;1.10;;;22.00;99.90;;;;;;5094432;28;20419;-77
2022/07/16 11:36:26;;;;;;;7.18;1.13;;;21.90;99.90;;;;;;5094468;28;20048;-77
2022/07/16 11:39:15;;;;;;;9.30;1.50;;;21.90;99.90;;;;;;5093452;28;20177;-76
2022/07/16 11:41:44;;;;;;;8.30;1.13;;;21.70;99.90;;;;;;5093388;28;20502;-77
2022/07/16 11:44:14;;;;;;;7.70;1.10;;;21.80;99.90;;;;;;5094265;28;20520;-79
2022/07/16 11:46:42;;;;;;;7.30;1.10;;;22.00;99.90;;;;;;5093153;28;20406;-77
2022/07/16 11:49:09;;;;;;;9.07;1.45;;;21.80;99.90;;;;;;5093363;28;20509;-77
2022/07/16 11:51:39;;;;;;;3.70;0.73;;;21.70;99.90;;;;;;5086162;28;20096;-77
2022/07/16 11:54:05;;;;;;;7.07;0.93;;;22.00;99.90;;;;;;5075612;28;20391;-77
2022/07/16 11:56:33;;;;;;;8.77;0.82;;;22.10;99.90;;;;;;5089368;28;20047;-77
2022/07/16 11:58:58;;;;;;;6.90;0.85;;;22.20;99.90;;;;;;5090022;28;20139;-77
2022/07/16 12:01:24;;;;;;;8.88;1.02;;;22.20;99.90;;;;;;5073172;28;20123;-77
2022/07/16 12:03:56;;;;;;;5.85;0.75;;;22.30;99.90;;;;;;5073326;28;20094;-78
2022/07/16 12:06:22;;;;;;;5.72;0.73;;;22.20;99.90;;;;;;5073755;28;20052;-77
2022/07/16 12:08:55;;;;;;;3.78;0.57;;;22.10;99.90;;;;;;5073517;28;20042;-77
2022/07/16 12:11:32;;;;;;;4.55;0.77;;;22.20;99.90;;;;;;5073492;28;20479;-78
2022/07/16 12:13:59;;;;;;;6.25;0.90;;;22.30;99.90;;;;;;5089114;28;20055;-78
2022/07/16 12:16:25;;;;;;;8.57;1.40;;;22.40;99.90;;;;;;5073751;28;20106;-77
2022/07/16 12:19:12;;;;;;;6.68;0.77;;;22.40;99.90;;;;;;5073335;28;20127;-77
2022/07/16 12:21:39;;;;;;;9.43;0.98;;;22.50;99.90;;;;;;5073263;28;20068;-77
2022/07/16 12:24:08;;;;;;;5.70;0.77;;;22.40;99.90;;;;;;5072135;28;20099;-78
2022/07/16 12:26:39;;;;;;;5.75;0.77;;;22.40;99.90;;;;;;5073495;28;20045;-77
2022/07/16 12:29:08;;;;;;;3.35;0.80;;;22.50;99.90;;;;;;5073299;28;20084;-77
2022/07/16 12:31:35;;;;;;;8.45;1.45;;;22.70;99.90;;;;;;5071995;28;20083;-78
2022/07/16 12:34:04;;;;;;;5.25;0.93;;;22.90;99.90;;;;;;5071937;28;20056;-77
2022/07/16 12:36:31;;;;;;;5.63;0.80;;;22.80;99.90;;;;;;5073512;28;20041;-77
2022/07/16 12:39:02;;;;;;;5.75;0.77;;;22.80;99.90;;;;;;5071947;28;20110;-77
2022/07/16 12:41:31;;;;;;;8.88;1.00;;;22.70;99.90;;;;;;5073533;28;20040;-77
2022/07/16 12:44:11;;;;;;;7.53;1.45;;;22.90;99.90;;;;;;5073093;28;20594;-77
2022/07/16 12:46:44;;;;;;;9.05;1.30;;;22.90;99.90;;;;;;5072202;28;20060;-78
2022/07/16 12:49:13;;;;;;;5.32;0.90;;;23.10;99.90;;;;;;5088951;28;20052;-77
2022/07/16 12:51:48;;;;;;;8.93;1.15;;;23.10;99.90;;;;;;5073095;28;20059;-78
2022/07/16 12:54:15;;;;;;;4.75;0.85;;;23.10;99.90;;;;;;5071854;28;20044;-77